Time;durP1;ratioP1;P1;durP2;ratioP2;P2;SDS_P1;SDS_P2;PMS_P1;PMS_P2;Temp;Humidity;BMP_temperature;BMP_pressure;BME280_temperature;BME280_humidity;BME280_pressure;Samples;Min_cycle;Max_cycle;Signal;HPM_P1;HPM_P2
2022/04/25 00:02:00;;;;;;;12.77;8.68;;;8.20;99.90;;;;;;5115283;28;20071;-76
2022/04/25 00:04:26;;;;;;;15.65;9.93;;;8.20;99.90;;;;;;5097423;28;20121;-76
2022/04/25 00:06:51;;;;;;;15.80;9.63;;;8.20;99.90;;;;;;5080779;28;20058;-76
2022/04/25 00:09:17;;;;;;;14.68;9.88;;;8.40;99.90;;;;;;5096726;28;20459;-76
2022/04/25 00:11:43;;;;;;;15.07;9.70;;;8.40;99.90;;;;;;5097318;28;20036;-76
2022/04/25 00:14:09;;;;;;;18.48;10.48;;;8.50;99.90;;;;;;5096688;28;20075;-75
2022/04/25 00:16:34;;;;;;;13.88;9.85;;;8.50;99.90;;;;;;5063368;28;20424;-76
2022/04/25 00:19:00;;;;;;;17.85;10.82;;;8.50;99.90;;;;;;5096279;28;20050;-77
2022/04/25 00:21:26;;;;;;;13.85;9.57;;;8.60;99.90;;;;;;5115133;28;20043;-76
2022/04/25 00:23:52;;;;;;;18.58;10.18;;;8.60;99.90;;;;;;5097177;28;20039;-76
2022/04/25 00:26:18;;;;;;;12.43;9.50;;;8.60;99.90;;;;;;5079800;28;20044;-76
2022/04/25 00:28:43;;;;;;;12.27;9.05;;;8.70;99.90;;;;;;5096678;28;20460;-76
2022/04/25 00:31:09;;;;;;;16.08;9.48;;;8.60;99.90;;;;;;5079977;28;20455;-76
2022/04/25 00:33:35;;;;;;;13.27;9.38;;;8.60;99.90;;;;;;5080222;28;20085;-76
2022/04/25 00:36:00;;;;;;;12.30;9.90;;;8.60;99.90;;;;;;5079752;28;20036;-76
2022/04/25 00:38:26;;;;;;;12.15;8.73;;;8.70;99.90;;;;;;5096334;28;20055;-76
2022/04/25 00:40:51;;;;;;;14.30;9.95;;;8.70;99.90;;;;;;5063515;28;20093;-76
2022/04/25 00:43:17;;;;;;;16.55;10.32;;;8.70;99.90;;;;;;5096474;28;20073;-76
2022/04/25 00:45:43;;;;;;;13.32;9.68;;;8.70;99.90;;;;;;5079737;28;20039;-76
2022/04/25 00:48:08;;;;;;;14.55;9.52;;;8.60;99.90;;;;;;5079193;28;20525;-76
2022/04/25 00:50:34;;;;;;;17.13;10.77;;;8.60;99.90;;;;;;5079944;28;20043;-76
2022/04/25 00:53:00;;;;;;;16.98;10.77;;;8.60;99.90;;;;;;5079979;28;20060;-76
2022/04/25 00:55:25;;;;;;;14.98;9.98;;;8.60;99.90;;;;;;5114138;28;20092;-76
2022/04/25 00:57:52;;;;;;;16.83;10.27;;;8.70;99.90;;;;;;5096489;28;20374;-76
2022/04/25 01:00:17;;;;;;;16.60;10.13;;;8.60;99.90;;;;;;5079341;28;20039;-76
2022/04/25 01:02:43;;;;;;;13.40;10.35;;;8.70;99.90;;;;;;5079688;28;20134;-76
2022/04/25 01:05:09;;;;;;;16.60;10.55;;;8.70;99.90;;;;;;5079177;28;20456;-76
2022/04/25 01:07:36;;;;;;;20.30;11.10;;;8.70;99.90;;;;;;5114430;28;20040;-76
2022/04/25 01:10:06;;;;;;;14.77;10.85;;;8.70;99.90;;;;;;5062957;28;20044;-76
2022/04/25 01:12:31;;;;;;;12.57;10.23;;;8.70;99.90;;;;;;5096400;28;20161;-76
2022/04/25 01:15:02;;;;;;;14.85;10.90;;;8.70;99.90;;;;;;5079266;28;20489;-76
2022/04/25 01:17:28;;;;;;;15.07;10.85;;;8.80;99.90;;;;;;5078918;28;20066;-76
2022/04/25 01:19:53;;;;;;;18.35;11.80;;;8.70;99.90;;;;;;5062513;28;20044;-76
2022/04/25 01:22:21;;;;;;;17.60;11.35;;;8.70;99.90;;;;;;5095632;28;20036;-76
2022/04/25 01:27:32;;;;;;;16.45;11.52;;;8.70;99.90;;;;;;5081493;28;20050;-77
2022/04/25 01:29:58;;;;;;;16.42;11.35;;;8.60;99.90;;;;;;5062582;28;20122;-76
2022/04/25 01:32:24;;;;;;;16.55;11.52;;;8.70;99.90;;;;;;5094997;28;20130;-76
2022/04/25 01:34:49;;;;;;;15.48;11.30;;;8.60;99.90;;;;;;5095697;28;20423;-76
2022/04/25 01:37:17;;;;;;;13.88;12.05;;;8.60;99.90;;;;;;5078525;28;20032;-76
2022/04/25 01:39:52;;;;;;;14.18;11.48;;;8.50;99.90;;;;;;5079162;28;20523;-76
2022/04/25 01:42:18;;;;;;;18.98;12.35;;;8.50;99.90;;;;;;5063180;28;20045;-76
2022/04/25 01:44:44;;;;;;;17.23;11.90;;;8.50;99.90;;;;;;5078991;28;20118;-76
2022/04/25 01:47:11;;;;;;;18.38;12.27;;;8.50;99.90;;;;;;5078606;28;20123;-76
2022/04/25 01:49:37;;;;;;;14.27;11.27;;;8.40;99.90;;;;;;5078631;28;20043;-76
2022/04/25 01:52:13;;;;;;;15.35;11.93;;;8.30;99.90;;;;;;5113636;28;20470;-77
2022/04/25 01:54:38;;;;;;;15.63;11.27;;;8.30;99.90;;;;;;5080044;28;20040;-76
2022/04/25 01:57:04;;;;;;;17.73;11.73;;;8.20;99.90;;;;;;5078188;28;20150;-76
2022/04/25 01:59:30;;;;;;;17.25;11.98;;;8.20;99.90;;;;;;5094899;28;20537;-76
2022/04/25 02:01:56;;;;;;;15.07;11.68;;;8.20;99.90;;;;;;5095267;28;20039;-76
2022/04/25 02:04:22;;;;;;;18.08;11.30;;;8.20;99.90;;;;;;5061528;28;20047;-76
2022/04/25 02:06:48;;;;;;;15.85;11.15;;;8.10;99.90;;;;;;5061463;28;20139;-76
2022/04/25 02:09:14;;;;;;;15.20;11.32;;;8.10;99.90;;;;;;5094901;28;20043;-76
2022/04/25 02:11:39;;;;;;;14.25;10.77;;;8.10;99.90;;;;;;5078466;28;20376;-76
2022/04/25 02:14:05;;;;;;;16.90;10.63;;;8.00;99.90;;;;;;5095057;28;20032;-78
2022/04/25 02:16:31;;;;;;;17.02;10.88;;;8.00;99.90;;;;;;5093977;28;20051;-77
2022/04/25 02:18:56;;;;;;;16.67;10.70;;;7.90;99.90;;;;;;5078519;28;20047;-76
2022/04/25 02:21:22;;;;;;;14.68;10.48;;;7.90;99.90;;;;;;5094457;28;20456;-76
2022/04/25 02:23:48;;;;;;;15.27;10.88;;;7.90;99.90;;;;;;5095014;28;20073;-76
2022/04/25 02:26:13;;;;;;;16.63;11.00;;;7.90;99.90;;;;;;5078222;28;20131;-76
2022/04/25 02:28:39;;;;;;;17.45;10.75;;;7.90;99.90;;;;;;5077576;28;20070;-76
2022/04/25 02:31:06;;;;;;;13.25;10.52;;;7.80;99.90;;;;;;5061622;28;20078;-76
2022/04/25 02:33:32;;;;;;;17.65;10.68;;;7.80;99.90;;;;;;5077982;28;20083;-76
2022/04/25 02:35:59;;;;;;;15.35;11.07;;;7.70;99.90;;;;;;5078431;28;20040;-76
2022/04/25 02:38:24;;;;;;;14.93;11.15;;;7.80;99.90;;;;;;5077828;28;20039;-76
2022/04/25 02:41:04;;;;;;;16.85;11.00;;;7.70;99.90;;;;;;5094728;28;20383;-76
2022/04/25 02:43:40;;;;;;;15.65;10.65;;;7.70;99.90;;;;;;5065082;28;20055;-76
2022/04/25 02:46:11;;;;;;;15.32;10.68;;;7.60;99.90;;;;;;5078212;28;20375;-76
2022/04/25 02:48:36;;;;;;;;;;;7.50;99.90;;;;;;5078753;28;20122;-76
2022/04/25 02:51:06;;;;;;;18.10;11.30;;;7.50;99.90;;;;;;5078007;28;20385;-77
2022/04/25 02:53:31;;;;;;;15.25;10.63;;;7.50;99.90;;;;;;5077744;28;20130;-77
2022/04/25 02:55:58;;;;;;;17.48;10.75;;;7.40;99.90;;;;;;5094980;28;20067;-76
2022/04/25 02:58:23;;;;;;;16.17;10.82;;;7.40;99.90;;;;;;5077734;28;20043;-76
2022/04/25 03:00:49;;;;;;;15.98;11.65;;;7.40;99.90;;;;;;5078166;28;20092;-76
2022/04/25 03:03:16;;;;;;;16.85;12.02;;;7.40;99.90;;;;;;5112869;28;20039;-76
2022/04/25 03:05:48;;;;;;;17.15;11.40;;;7.40;99.90;;;;;;5094101;28;20066;-76
2022/04/25 03:08:16;;;;;;;15.77;11.05;;;7.30;99.90;;;;;;5080074;28;20036;-76
2022/04/25 03:10:42;;;;;;;17.17;11.70;;;7.30;99.90;;;;;;5065240;28;20405;-76
2022/04/25 03:13:08;;;;;;;15.15;11.65;;;7.30;99.90;;;;;;5081518;28;20053;-76
2022/04/25 03:15:34;;;;;;;14.45;11.20;;;7.30;99.90;;;;;;5097950;28;20048;-76
2022/04/25 03:18:01;;;;;;;17.08;11.90;;;7.30;99.90;;;;;;5064831;28;20093;-76
2022/04/25 03:20:27;;;;;;;15.15;11.10;;;7.30;99.90;;;;;;5064665;28;20391;-76
2022/04/25 03:22:54;;;;;;;15.07;11.40;;;7.30;99.90;;;;;;5116470;28;20375;-76
2022/04/25 03:25:20;;;;;;;16.55;11.30;;;7.40;99.90;;;;;;5098468;28;20047;-75
2022/04/25 03:27:46;;;;;;;19.52;12.07;;;7.40;99.90;;;;;;5097679;28;20035;-76
2022/04/25 03:30:11;;;;;;;16.08;11.30;;;7.40;99.90;;;;;;5098400;28;20424;-76
2022/04/25 03:32:37;;;;;;;15.60;11.73;;;7.40;99.90;;;;;;5097885;28;20122;-76
2022/04/25 03:35:03;;;;;;;16.27;11.80;;;7.50;99.90;;;;;;5116316;28;20075;-76
2022/04/25 03:37:30;;;;;;;17.02;11.18;;;7.50;99.90;;;;;;5097691;28;20039;-76
2022/04/25 03:39:58;;;;;;;14.90;11.15;;;7.50;99.90;;;;;;5064665;28;20048;-76
2022/04/25 03:42:24;;;;;;;14.93;11.27;;;7.50;99.90;;;;;;5098125;28;20126;-76
2022/04/25 03:44:50;;;;;;;16.50;11.45;;;7.50;99.90;;;;;;5097503;28;20169;-76
2022/04/25 03:47:16;;;;;;;16.40;11.77;;;7.60;99.90;;;;;;5098079;28;20403;-76
2022/04/25 03:49:42;;;;;;;14.77;11.57;;;7.70;99.90;;;;;;5080426;28;20073;-76
2022/04/25 03:52:07;;;;;;;19.60;12.18;;;7.80;99.90;;;;;;5097926;28;20096;-76
2022/04/25 03:57:17;;;;;;;15.60;12.00;;;7.80;99.90;;;;;;5083684;28;20460;-76
2022/04/25 03:59:43;;;;;;;16.00;11.88;;;7.80;99.90;;;;;;5097530;28;20044;-76
2022/04/25 04:02:08;;;;;;;14.05;11.30;;;7.80;99.90;;;;;;5097629;28;20032;-76
2022/04/25 04:04:34;;;;;;;14.90;11.45;;;7.90;99.90;;;;;;5080342;28;20035;-76
2022/04/25 04:07:00;;;;;;;15.18;11.52;;;7.90;99.90;;;;;;5064113;28;20043;-76
2022/04/25 04:12:10;;;;;;;16.98;11.25;;;8.00;99.90;;;;;;5100250;28;20085;-76
2022/04/25 04:14:36;;;;;;;15.13;11.68;;;8.00;99.90;;;;;;5096827;28;20571;-76
2022/04/25 04:17:03;;;;;;;15.48;11.40;;;8.00;99.90;;;;;;5096903;28;20047;-76
2022/04/25 04:19:28;;;;;;;15.68;11.68;;;8.00;99.90;;;;;;5096953;28;20043;-76
2022/04/25 04:21:54;;;;;;;14.00;11.25;;;8.10;99.90;;;;;;5079990;28;20043;-76
2022/04/25 04:24:20;;;;;;;15.38;11.02;;;8.10;99.90;;;;;;5097195;28;20043;-76
2022/04/25 04:26:45;;;;;;;11.68;9.98;;;8.10;99.90;;;;;;5079985;28;20154;-76
2022/04/25 04:29:11;;;;;;;15.60;10.25;;;8.10;99.90;;;;;;5097101;28;20044;-76
2022/04/25 04:31:37;;;;;;;13.45;9.98;;;8.00;99.90;;;;;;5079796;28;20475;-76
2022/04/25 04:34:03;;;;;;;11.73;9.70;;;8.00;99.90;;;;;;5115119;28;20040;-76
2022/04/25 04:36:29;;;;;;;14.57;9.75;;;8.10;99.90;;;;;;5079884;28;20036;-76
2022/04/25 04:38:54;;;;;;;12.32;10.00;;;8.10;99.90;;;;;;5096362;28;20052;-75
2022/04/25 04:41:20;;;;;;;16.73;10.65;;;8.00;99.90;;;;;;5096829;28;20131;-76
2022/04/25 04:43:45;;;;;;;13.70;9.35;;;8.00;99.90;;;;;;5114460;28;20130;-75
2022/04/25 04:46:11;;;;;;;16.10;9.85;;;8.10;99.90;;;;;;5096935;28;20050;-79
2022/04/25 04:48:37;;;;;;;10.80;9.23;;;8.10;99.90;;;;;;5079291;28;20036;-75
2022/04/25 04:51:02;;;;;;;13.63;9.68;;;8.10;99.90;;;;;;5079937;28;20452;-76
2022/04/25 04:53:28;;;;;;;13.15;9.15;;;8.10;99.90;;;;;;5096553;28;20375;-76
2022/04/25 04:55:54;;;;;;;11.88;9.57;;;8.10;99.90;;;;;;5062677;28;20481;-75
2022/04/25 04:58:20;;;;;;;13.43;9.63;;;8.10;99.90;;;;;;5079809;28;20467;-75
2022/04/25 05:00:46;;;;;;;11.85;9.20;;;8.10;99.90;;;;;;5095599;28;20498;-75
2022/04/25 05:03:15;;;;;;;12.63;8.98;;;8.10;99.90;;;;;;5096290;28;20043;-75
2022/04/25 05:05:45;;;;;;;14.60;8.88;;;8.10;99.90;;;;;;5113738;28;20042;-75
2022/04/25 05:08:10;;;;;;;12.45;8.73;;;8.10;99.90;;;;;;5096024;28;20040;-75
2022/04/25 05:10:36;;;;;;;12.70;8.75;;;8.10;99.90;;;;;;5096218;28;20043;-75
2022/04/25 05:13:03;;;;;;;10.48;8.45;;;8.10;99.90;;;;;;5095850;28;20452;-77
2022/04/25 05:15:29;;;;;;;9.32;8.07;;;8.10;99.90;;;;;;5095996;28;20043;-76
2022/04/25 05:17:55;;;;;;;11.13;8.38;;;8.10;99.90;;;;;;5078683;28;20058;-76
2022/04/25 05:20:22;;;;;;;11.63;8.93;;;8.00;99.90;;;;;;5095886;28;20046;-76
2022/04/25 05:22:48;;;;;;;11.32;8.98;;;8.10;99.90;;;;;;5095468;28;20031;-76
2022/04/25 05:25:16;;;;;;;11.70;8.95;;;8.00;99.90;;;;;;5079126;28;20040;-76
2022/04/25 05:27:43;;;;;;;11.30;8.30;;;8.00;99.90;;;;;;5078331;28;20051;-76
2022/04/25 05:30:09;;;;;;;15.05;7.95;;;8.00;99.90;;;;;;5079195;28;20081;-75
2022/04/25 05:32:46;;;;;;;11.63;8.27;;;8.10;99.90;;;;;;5061675;28;20051;-76
2022/04/25 05:35:13;;;;;;;10.65;8.52;;;8.10;99.90;;;;;;5079179;28;20132;-75
2022/04/25 05:37:39;;;;;;;12.98;8.43;;;8.10;99.90;;;;;;5095991;28;20044;-76
2022/04/25 05:40:06;;;;;;;15.23;8.63;;;8.10;99.90;;;;;;5095190;28;20047;-75
2022/04/25 05:42:32;;;;;;;10.45;7.90;;;8.10;99.90;;;;;;5078807;28;20044;-76
2022/04/25 05:44:58;;;;;;;11.35;8.30;;;8.10;99.90;;;;;;5113249;28;20040;-75
2022/04/25 05:47:24;;;;;;;12.27;8.38;;;8.10;99.90;;;;;;5062311;28;20050;-76
2022/04/25 05:52:34;;;;;;;11.07;8.25;;;8.20;99.90;;;;;;5098306;28;20055;-76
2022/04/25 05:54:59;;;;;;;12.30;8.07;;;8.20;99.90;;;;;;5078352;28;20122;-75
2022/04/25 05:57:25;;;;;;;9.77;8.10;;;8.20;99.90;;;;;;5095380;28;20353;-76
2022/04/25 05:59:50;;;;;;;10.55;8.10;;;8.20;99.90;;;;;;5095158;28;20032;-76
2022/04/25 06:02:17;;;;;;;12.75;8.35;;;8.20;99.90;;;;;;5095583;28;20459;-76
2022/04/25 06:04:43;;;;;;;10.82;8.63;;;8.20;99.90;;;;;;5095329;28;20044;-75
2022/04/25 06:07:08;;;;;;;13.82;8.27;;;8.20;99.90;;;;;;5078012;28;20417;-76
2022/04/25 06:09:34;;;;;;;12.43;8.65;;;8.20;99.90;;;;;;5095132;28;20405;-75
2022/04/25 06:12:02;;;;;;;12.32;8.35;;;8.10;99.90;;;;;;5094996;28;20046;-75
2022/04/25 06:14:30;;;;;;;10.93;8.88;;;8.20;99.90;;;;;;5095321;28;20131;-75
2022/04/25 06:16:59;;;;;;;13.07;8.45;;;8.10;99.90;;;;;;5112479;28;20063;-75
2022/04/25 06:19:25;;;;;;;13.45;8.80;;;8.20;99.90;;;;;;5094991;28;20032;-75
2022/04/25 06:21:51;;;;;;;13.32;8.38;;;8.20;99.90;;;;;;5077946;28;20147;-76
2022/04/25 06:24:17;;;;;;;12.05;8.20;;;8.30;99.90;;;;;;5078144;28;20040;-75
2022/04/25 06:26:43;;;;;;;13.23;8.40;;;8.30;99.90;;;;;;5078217;28;20052;-75
2022/04/25 06:29:08;;;;;;;16.85;8.35;;;8.30;99.90;;;;;;5077780;28;20541;-75
2022/04/25 06:31:34;;;;;;;10.73;8.13;;;8.40;99.90;;;;;;5112035;28;20052;-76
2022/04/25 06:34:00;;;;;;;12.15;8.30;;;8.40;99.90;;;;;;5077935;28;20044;-75
2022/04/25 06:36:26;;;;;;;11.82;8.43;;;8.40;99.90;;;;;;5061616;28;20104;-76
2022/04/25 06:38:52;;;;;;;11.05;7.88;;;8.50;99.90;;;;;;5061236;28;20131;-75
2022/04/25 06:41:17;;;;;;;13.85;8.02;;;8.50;99.90;;;;;;5094827;28;20082;-75
2022/04/25 06:43:43;;;;;;;11.88;8.15;;;8.50;99.90;;;;;;5081173;28;20135;-75
2022/04/25 06:46:09;;;;;;;14.35;8.27;;;8.60;99.90;;;;;;5098801;28;20173;-75
2022/04/25 06:48:34;;;;;;;13.10;8.18;;;8.60;99.90;;;;;;5098925;28;20042;-75
2022/04/25 06:51:00;;;;;;;12.18;7.53;;;8.70;99.90;;;;;;5098412;28;20082;-75
2022/04/25 06:53:26;;;;;;;10.80;7.68;;;8.70;99.90;;;;;;5082042;28;20047;-75
2022/04/25 06:55:52;;;;;;;13.15;8.05;;;8.70;99.90;;;;;;5098612;28;20048;-82
2022/04/25 06:58:18;;;;;;;14.55;8.07;;;8.70;99.90;;;;;;5099018;28;20043;-75
2022/04/25 07:00:45;;;;;;;13.75;8.77;;;8.80;99.90;;;;;;5098883;28;20130;-75
2022/04/25 07:03:11;;;;;;;13.38;8.20;;;8.70;99.90;;;;;;5098262;28;20047;-75
2022/04/25 07:05:36;;;;;;;11.02;7.40;;;8.70;99.90;;;;;;5098869;28;20084;-75
2022/04/25 07:08:03;;;;;;;11.15;8.50;;;8.70;99.90;;;;;;5097871;28;20464;-76
2022/04/25 07:10:29;;;;;;;16.25;8.32;;;8.70;99.90;;;;;;5098677;28;20111;-75
2022/04/25 07:12:56;;;;;;;12.57;8.57;;;8.70;99.90;;;;;;5098453;28;20188;-81
2022/04/25 07:15:23;;;;;;;15.73;8.57;;;8.80;99.90;;;;;;5116326;28;20039;-75
2022/04/25 07:17:54;;;;;;;16.83;8.65;;;8.70;99.90;;;;;;5098291;28;20059;-75
2022/04/25 07:20:21;;;;;;;14.35;8.60;;;8.70;99.90;;;;;;5065877;28;20173;-75
2022/04/25 07:30:59;;;;;;;11.65;9.13;;;8.60;99.90;;;;;;5116065;28;20047;-76
2022/04/25 07:33:26;;;;;;;13.73;9.02;;;8.60;99.90;;;;;;5098146;28;20427;-75
2022/04/25 07:35:53;;;;;;;13.32;8.98;;;8.60;99.90;;;;;;5098359;28;20422;-76
2022/04/25 07:38:19;;;;;;;15.02;9.30;;;8.60;99.90;;;;;;5081072;28;20036;-76
2022/04/25 07:40:45;;;;;;;14.88;8.77;;;8.50;99.90;;;;;;5097955;28;20456;-77
2022/04/25 07:43:11;;;;;;;15.57;9.30;;;8.50;99.90;;;;;;5097562;28;20043;-75
2022/04/25 07:45:36;;;;;;;14.43;10.05;;;8.50;99.90;;;;;;5097998;28;20048;-76
2022/04/25 07:48:02;;;;;;;15.80;8.85;;;8.50;99.90;;;;;;5063557;28;20044;-76
2022/04/25 07:50:28;;;;;;;13.15;9.00;;;8.50;99.90;;;;;;5098027;28;20124;-76
2022/04/25 07:52:53;;;;;;;13.45;8.88;;;8.60;99.90;;;;;;5115796;28;20460;-76
2022/04/25 07:55:19;;;;;;;11.55;8.25;;;8.60;99.90;;;;;;5079200;28;20039;-75
2022/04/25 07:57:45;;;;;;;13.55;8.75;;;8.60;99.90;;;;;;5064270;28;20035;-76
2022/04/25 08:00:11;;;;;;;12.13;9.10;;;8.60;99.90;;;;;;5097368;28;20039;-76
2022/04/25 08:02:36;;;;;;;13.43;8.73;;;8.60;99.90;;;;;;5115628;28;20050;-75
2022/04/25 08:05:02;;;;;;;13.98;8.85;;;8.60;99.90;;;;;;5080392;28;20040;-76
2022/04/25 08:07:29;;;;;;;16.38;9.07;;;8.70;99.90;;;;;;5047576;28;20039;-75
2022/04/25 08:09:55;;;;;;;13.52;8.48;;;8.70;99.90;;;;;;5097158;28;20153;-75
2022/04/25 08:18:01;;;;;;;12.13;9.23;;;8.80;99.90;;;;;;5097285;28;20048;-81
2022/04/25 08:20:34;;;;;;;12.80;9.70;;;8.80;99.90;;;;;;5066952;28;20375;-74
2022/04/25 08:23:00;;;;;;;15.05;9.60;;;8.90;99.90;;;;;;5097555;28;20040;-74
2022/04/25 08:25:27;;;;;;;13.52;9.23;;;8.90;99.90;;;;;;5080071;28;20128;-75
2022/04/25 08:27:53;;;;;;;13.02;8.70;;;8.90;99.90;;;;;;5115076;28;20040;-74
2022/04/25 08:30:20;;;;;;;11.40;8.77;;;8.90;99.90;;;;;;5096545;28;20188;-74
2022/04/25 08:32:46;;;;;;;12.00;9.70;;;8.90;99.90;;;;;;5063797;28;20108;-75
2022/04/25 08:35:13;;;;;;;12.55;9.40;;;9.00;99.90;;;;;;5096572;28;20421;-75
2022/04/25 08:37:39;;;;;;;13.07;9.70;;;9.00;99.90;;;;;;5114012;28;20051;-75
2022/04/25 08:40:05;;;;;;;18.05;9.50;;;9.00;99.90;;;;;;5097044;28;20040;-75
2022/04/25 08:42:31;;;;;;;11.80;9.38;;;9.00;99.90;;;;;;5096812;28;20078;-76
2022/04/25 08:44:57;;;;;;;13.00;10.45;;;9.00;99.90;;;;;;5063510;28;20079;-75
2022/04/25 08:47:26;;;;;;;14.02;10.40;;;9.00;99.90;;;;;;5096348;28;20047;-75
2022/04/25 08:49:51;;;;;;;16.48;11.20;;;9.00;99.90;;;;;;5096501;28;20050;-75
2022/04/25 08:52:17;;;;;;;15.23;10.48;;;9.00;99.90;;;;;;5096125;28;20122;-75
2022/04/25 08:54:43;;;;;;;12.52;10.38;;;8.90;99.90;;;;;;5063272;28;20042;-75
2022/04/25 08:57:09;;;;;;;14.98;10.85;;;9.00;99.90;;;;;;5114209;28;20078;-75
2022/04/25 08:59:34;;;;;;;17.70;10.98;;;9.00;99.90;;;;;;5079686;28;20051;-75
2022/04/25 09:02:00;;;;;;;15.30;10.15;;;9.00;99.90;;;;;;5063113;28;20075;-74
2022/04/25 09:04:26;;;;;;;12.13;9.27;;;9.00;99.90;;;;;;5079236;28;20075;-75
2022/04/25 09:06:51;;;;;;;14.52;9.00;;;9.10;99.90;;;;;;5096280;28;20043;-75
2022/04/25 09:09:18;;;;;;;15.52;8.93;;;9.10;99.90;;;;;;5113496;28;20028;-75
2022/04/25 09:14:28;;;;;;;10.70;7.22;;;9.00;99.90;;;;;;5096027;28;20058;-75
2022/04/25 09:16:54;;;;;;;10.80;6.75;;;9.00;99.90;;;;;;5078783;28;20048;-74
2022/04/25 09:19:20;;;;;;;11.77;6.10;;;9.00;99.90;;;;;;5113772;28;20047;-75
2022/04/25 09:21:45;;;;;;;10.32;5.93;;;9.00;99.90;;;;;;5062649;28;20134;-75
2022/04/25 09:24:30;;;;;;;7.57;5.70;;;9.00;99.90;;;;;;5096019;28;20032;-74
2022/04/25 09:27:08;;;;;;;8.40;5.88;;;9.10;99.90;;;;;;5095866;28;20090;-75
2022/04/25 09:29:35;;;;;;;10.23;5.97;;;9.10;99.90;;;;;;5095269;28;20039;-75
2022/04/25 09:32:01;;;;;;;8.48;5.45;;;9.10;99.90;;;;;;5062587;28;20376;-78
2022/04/25 09:37:13;;;;;;;10.75;5.97;;;9.10;99.90;;;;;;5113839;28;20130;-74
2022/04/25 09:39:39;;;;;;;9.98;6.00;;;9.00;99.90;;;;;;5095640;28;20044;-74
2022/04/25 09:42:05;;;;;;;10.43;5.43;;;9.00;99.90;;;;;;5113668;28;20100;-75
2022/04/25 09:44:56;;;;;;;8.35;5.90;;;9.00;99.90;;;;;;5095378;28;20099;-74
2022/04/25 09:47:36;;;;;;;8.52;5.40;;;9.10;99.90;;;;;;5112992;28;20479;-74
2022/04/25 09:50:06;;;;;;;11.38;5.70;;;9.10;99.90;;;;;;5096818;28;20375;-75
2022/04/25 09:52:51;;;;;;;11.07;6.20;;;9.20;99.90;;;;;;5095163;28;20041;-75
2022/04/25 09:55:18;;;;;;;11.65;5.90;;;9.30;99.90;;;;;;5097998;28;20430;-74
2022/04/25 09:57:46;;;;;;;10.30;5.45;;;9.30;99.90;;;;;;5113750;28;20044;-74
2022/04/25 10:00:13;;;;;;;9.88;5.68;;;9.30;99.90;;;;;;5095268;28;20039;-74
2022/04/25 10:02:39;;;;;;;8.23;5.43;;;9.40;99.90;;;;;;5112946;28;20075;-74
2022/04/25 10:05:17;;;;;;;7.32;5.70;;;9.40;99.90;;;;;;5095519;28;20083;-74
2022/04/25 10:07:43;;;;;;;8.52;5.53;;;9.50;99.90;;;;;;5095015;28;20189;-74
2022/04/25 10:10:10;;;;;;;8.02;5.57;;;9.50;99.90;;;;;;5078599;28;20134;-74
2022/04/25 10:12:39;;;;;;;9.38;5.68;;;9.60;99.90;;;;;;5061380;28;20062;-74
2022/04/25 10:15:05;;;;;;;7.88;5.10;;;9.70;99.90;;;;;;5113208;28;20435;-73
2022/04/25 10:17:34;;;;;;;8.57;5.57;;;9.80;99.90;;;;;;5112249;28;20089;-75
2022/04/25 10:20:00;;;;;;;8.18;5.80;;;9.90;99.90;;;;;;5113243;28;20043;-73
2022/04/25 10:22:26;;;;;;;8.90;5.38;;;10.00;99.90;;;;;;5077964;28;20055;-73
2022/04/25 10:24:51;;;;;;;9.90;5.60;;;10.00;99.90;;;;;;5095096;28;20084;-73
2022/04/25 10:27:18;;;;;;;9.65;5.75;;;10.10;99.90;;;;;;5094829;28;20036;-73
2022/04/25 10:29:49;;;;;;;7.43;5.20;;;10.20;99.90;;;;;;5077862;28;20114;-74
2022/04/25 10:32:19;;;;;;;7.90;5.65;;;10.20;99.90;;;;;;5095510;28;20043;-74
2022/04/25 10:34:46;;;;;;;9.00;5.93;;;10.20;99.90;;;;;;5078457;28;20046;-74
2022/04/25 10:37:31;;;;;;;8.77;5.90;;;10.30;99.90;;;;;;5094859;28;20475;-74
2022/04/25 10:39:57;;;;;;;10.85;5.60;;;10.40;99.90;;;;;;5095719;28;20050;-73
2022/04/25 10:45:07;;;;;;;8.65;5.88;;;10.50;99.90;;;;;;5112959;28;20391;-73
2022/04/25 10:47:33;;;;;;;10.25;5.20;;;10.60;99.90;;;;;;5094388;28;20036;-74
2022/04/25 10:50:02;;;;;;;9.35;5.78;;;10.70;99.90;;;;;;5094959;28;20153;-73
2022/04/25 10:52:33;;;;;;;10.70;5.40;;;10.80;99.90;;;;;;5112398;28;20039;-73
2022/04/25 10:55:33;;;;;;;7.53;5.60;;;10.90;99.90;;;;;;5112732;28;20085;-73
2022/04/25 10:58:01;;;;;;;10.77;5.40;;;11.00;99.90;;;;;;5112790;28;20472;-73
2022/04/25 11:00:36;;;;;;;8.77;5.00;;;11.10;99.90;;;;;;5112061;28;20044;-74
2022/04/25 11:03:05;;;;;;;9.77;5.65;;;11.20;99.90;;;;;;5094896;28;20040;-74
2022/04/25 11:05:34;;;;;;;9.02;5.60;;;11.30;99.50;;;;;;5111939;28;20475;-75
2022/04/25 11:08:19;;;;;;;9.50;5.63;;;11.40;99.50;;;;;;5077750;28;20047;-74
2022/04/25 11:10:45;;;;;;;8.40;5.40;;;11.50;99.40;;;;;;5112309;28;20048;-74
2022/04/25 11:13:12;;;;;;;7.95;5.60;;;11.60;99.40;;;;;;5112745;28;20426;-74
2022/04/25 11:15:42;;;;;;;9.20;5.40;;;11.60;99.40;;;;;;5077721;28;20035;-74
2022/04/25 11:18:28;;;;;;;13.38;6.70;;;11.60;99.00;;;;;;5112682;28;20082;-74
2022/04/25 11:20:57;;;;;;;7.38;5.15;;;11.70;98.60;;;;;;5062352;28;20044;-74
2022/04/25 11:23:28;;;;;;;7.82;5.18;;;11.60;98.40;;;;;;5094501;28;20395;-74
2022/04/25 11:25:59;;;;;;;8.27;4.70;;;11.60;98.10;;;;;;5078699;28;20379;-74
2022/04/25 11:28:25;;;;;;;;;;;11.70;98.10;;;;;;5078837;28;20044;-74
2022/04/25 11:31:12;;;;;;;7.13;5.00;;;11.60;97.30;;;;;;5115854;28;19915;-74
2022/04/25 11:33:45;;;;;;;7.30;5.13;;;11.60;97.80;;;;;;5097842;28;20059;-74
2022/04/25 11:36:11;;;;;;;7.40;4.95;;;11.60;97.40;;;;;;5098570;28;20452;-74
2022/04/25 11:41:22;;;;;;;9.90;5.40;;;11.60;97.30;;;;;;5116118;28;20044;-74
2022/04/25 11:43:48;;;;;;;9.57;5.50;;;11.60;97.50;;;;;;5064097;28;20118;-74
2022/04/25 11:46:14;;;;;;;8.75;5.20;;;11.70;97.40;;;;;;5116048;28;20071;-74
2022/04/25 11:48:40;;;;;;;6.53;5.65;;;11.70;97.20;;;;;;5080667;28;20040;-74
2022/04/25 11:51:05;;;;;;;8.40;5.07;;;11.70;96.90;;;;;;5097944;28;20059;-74
2022/04/25 11:53:32;;;;;;;8.85;5.35;;;11.70;96.80;;;;;;5080537;28;20031;-81
2022/04/25 11:56:01;;;;;;;8.07;5.57;;;11.60;97.10;;;;;;5097644;28;20050;-74
2022/04/25 11:58:30;;;;;;;8.60;5.47;;;11.60;97.20;;;;;;5097712;28;20480;-74
2022/04/25 12:00:56;;;;;;;7.13;5.25;;;11.60;97.10;;;;;;5115304;28;20039;-74
2022/04/25 12:03:24;;;;;;;11.55;5.45;;;11.60;97.30;;;;;;5097695;28;20367;-74
2022/04/25 12:05:50;;;;;;;8.35;5.40;;;11.60;97.40;;;;;;5063804;28;20156;-74
2022/04/25 12:16:36;;;;;;;8.48;6.15;;;11.60;97.70;;;;;;5085365;28;20055;-75
2022/04/25 12:19:06;;;;;;;9.48;6.22;;;11.60;98.00;;;;;;5080357;28;20192;-75
2022/04/25 12:21:32;;;;;;;8.13;6.10;;;11.60;97.80;;;;;;5097106;28;20036;-76
2022/04/25 12:23:57;;;;;;;7.57;6.40;;;11.50;97.80;;;;;;5080255;28;20131;-75
2022/04/25 12:26:25;;;;;;;8.23;6.60;;;11.50;98.00;;;;;;5097252;28;20118;-74
2022/04/25 12:28:59;;;;;;;10.73;6.80;;;11.50;98.50;;;;;;5114727;28;20040;-75
2022/04/25 12:31:25;;;;;;;9.10;7.10;;;11.50;99.30;;;;;;5081660;28;20108;-75
2022/04/25 12:33:51;;;;;;;9.85;7.28;;;11.40;99.90;;;;;;5079947;28;20072;-75
2022/04/25 12:36:20;;;;;;;8.85;6.97;;;11.40;99.90;;;;;;5114709;28;20488;-75
2022/04/25 12:39:08;;;;;;;12.95;7.00;;;11.40;99.90;;;;;;5114670;28;20036;-75
2022/04/25 12:41:38;;;;;;;9.70;7.32;;;11.30;99.90;;;;;;5114443;28;20494;-77
2022/04/25 12:44:10;;;;;;;8.00;7.20;;;11.30;99.90;;;;;;5079720;28;20040;-77
2022/04/25 12:46:39;;;;;;;9.55;7.50;;;11.20;99.90;;;;;;5114717;28;20396;-76
2022/04/25 12:49:18;;;;;;;9.85;7.18;;;11.20;99.90;;;;;;5114602;28;20036;-76
2022/04/25 12:51:50;;;;;;;10.45;7.68;;;11.20;99.90;;;;;;5114271;28;20043;-76
2022/04/25 12:54:23;;;;;;;8.82;7.90;;;11.20;99.90;;;;;;5096796;28;20054;-78
2022/04/25 12:56:50;;;;;;;10.70;7.85;;;11.20;99.90;;;;;;5079617;28;20043;-76
2022/04/25 12:59:29;;;;;;;10.68;7.93;;;11.20;99.90;;;;;;5096480;28;20049;-76
2022/04/25 13:02:06;;;;;;;9.57;7.20;;;11.20;99.90;;;;;;5079802;28;20051;-76
2022/04/25 13:04:31;;;;;;;9.32;7.47;;;11.40;99.90;;;;;;5097031;28;20416;-78
2022/04/25 13:06:57;;;;;;;10.93;7.35;;;11.40;99.90;;;;;;5096039;28;20119;-76
2022/04/25 13:09:23;;;;;;;8.80;7.13;;;11.50;99.90;;;;;;5062775;28;20039;-76
2022/04/25 13:11:48;;;;;;;11.23;7.07;;;11.70;99.90;;;;;;5113956;28;20123;-76
2022/04/25 13:14:14;;;;;;;10.18;7.35;;;11.80;99.90;;;;;;5062679;28;20126;-76
2022/04/25 13:16:41;;;;;;;8.80;7.57;;;11.90;99.90;;;;;;5095865;28;20059;-76
2022/04/25 13:19:07;;;;;;;11.75;7.50;;;11.90;99.90;;;;;;5095628;28;20035;-76
2022/04/25 13:21:38;;;;;;;10.55;7.50;;;12.00;99.90;;;;;;5096176;28;20047;-76
2022/04/25 13:24:04;;;;;;;11.18;7.80;;;12.00;99.90;;;;;;5113782;28;20457;-76
2022/04/25 13:26:29;;;;;;;11.35;7.80;;;12.10;99.90;;;;;;5114112;28;20040;-76
2022/04/25 13:28:55;;;;;;;9.65;7.30;;;12.00;99.90;;;;;;5078270;28;20493;-76